Time;durP1;ratioP1;P1;durP2;ratioP2;P2;SDS_P1;SDS_P2;PMS_P1;PMS_P2;Temp;Humidity;BMP_temperature;BMP_pressure;BME280_temperature;BME280_humidity;BME280_pressure;Samples;Min_cycle;Max_cycle;Signal;HPM_P1;HPM_P2
2022/02/03 00:02:36;;;;;;;10.63;6.82;;;;;;;;;;5086650;28;20201;-74
2022/02/03 00:05:09;;;;;;;10.35;6.78;;;;;;;;;;5085668;28;20270;-74
2022/02/03 00:07:46;;;;;;;9.25;5.63;;;;;;;;;;5084262;28;20194;-74
2022/02/03 00:16:26;;;;;;;10.25;6.93;;;;;;;;;;5087572;28;20323;-76
2022/02/03 00:24:35;;;;;;;8.65;6.30;;;;;;;;;;5074175;28;20205;-76
2022/02/03 00:27:08;;;;;;;9.38;7.53;;;;;;;;;;5089014;28;20281;-76
2022/02/03 00:29:50;;;;;;;12.00;7.38;;;;;;;;;;5087599;28;20595;-77
2022/02/03 00:32:42;;;;;;;11.02;7.78;;;;;;;;;;5090267;28;20189;-76
2022/02/03 00:35:30;;;;;;;10.63;7.15;;;;;;;;;;5088375;28;20294;-76
2022/02/03 00:38:13;;;;;;;12.30;7.22;;;;;;;;;;5085276;28;20197;-75
2022/02/03 00:48:59;;;;;;;12.88;8.43;;;;;;;;;;5075883;28;20225;-76
2022/02/03 00:51:28;;;;;;;14.52;8.50;;;;;;;;;;5086880;28;20194;-76
2022/02/03 00:53:58;;;;;;;11.30;8.35;;;;;;;;;;5084268;28;20193;-76
2022/02/03 00:56:26;;;;;;;15.90;9.50;;;;;;;;;;5089978;28;20217;-76
2022/02/03 00:58:54;;;;;;;12.60;8.57;;;;;;;;;;5086732;28;20197;-77
2022/02/03 01:01:23;;;;;;;21.08;8.82;;;;;;;;;;5084528;28;20225;-76
2022/02/03 01:03:52;;;;;;;12.70;8.80;;;;;;;;;;5085164;28;20189;-76
2022/02/03 01:06:22;;;;;;;15.40;8.88;;;;;;;;;;5081008;28;20194;-76
2022/02/03 01:08:51;;;;;;;13.60;9.63;;;;;;;;;;5087133;28;20193;-76
2022/02/03 01:11:25;;;;;;;12.10;8.60;;;;;;;;;;5083307;28;20189;-76
2022/02/03 01:13:59;;;;;;;12.32;9.35;;;;;;;;;;5086539;28;20195;-77
2022/02/03 01:16:40;;;;;;;16.30;10.02;;;;;;;;;;5084354;28;20278;-74
2022/02/03 01:19:25;;;;;;;13.18;9.93;;;;;;;;;;5087954;28;20274;-74
2022/02/03 01:44:20;;;;;;;20.50;10.77;;;;;;;;;;5088559;28;20205;-74
2022/02/03 01:46:53;;;;;;;13.52;9.00;;;;;;;;;;5088536;28;20626;-74
2022/02/03 01:49:39;;;;;;;17.60;11.50;;;;;;;;;;5088037;28;20561;-74
2022/02/03 01:52:10;;;;;;;17.00;11.43;;;;;;;;;;5084559;28;20556;-74
2022/02/03 01:54:39;;;;;;;19.98;10.70;;;;;;;;;;5088063;28;20197;-74
2022/02/03 01:57:08;;;;;;;15.93;10.30;;;;;;;;;;5085259;28;20193;-74
2022/02/03 01:59:36;;;;;;;16.75;10.82;;;;;;;;;;5082106;28;20189;-74
2022/02/03 02:02:05;;;;;;;15.82;10.85;;;;;;;;;;5083907;28;20198;-75
2022/02/03 02:04:47;;;;;;;15.65;11.38;;;;;;;;;;5088066;28;20190;-74
2022/02/03 02:07:20;;;;;;;19.20;10.50;;;;;;;;;;5076744;28;20540;-74
2022/02/03 02:10:03;;;;;;;14.73;9.95;;;;;;;;;;5087433;28;20211;-74
2022/02/03 02:12:43;;;;;;;15.25;11.10;;;;;;;;;;5090316;28;20660;-74
2022/02/03 02:15:31;;;;;;;17.52;10.23;;;;;;;;;;5092018;28;20216;-75
2022/02/03 02:18:18;;;;;;;17.30;11.20;;;;;;;;;;5092474;28;20700;-74
2022/02/03 02:43:37;;;;;;;18.38;12.32;;;;;;;;;;5084169;27;20591;-74
2022/02/03 02:46:08;;;;;;;20.08;12.38;;;;;;;;;;5080289;28;20189;-74
2022/02/03 02:48:48;;;;;;;17.15;11.60;;;;;;;;;;5071083;28;20194;-74
2022/02/03 02:51:25;;;;;;;16.83;11.13;;;;;;;;;;5083488;28;20197;-74
2022/02/03 02:54:17;;;;;;;17.60;11.93;;;;;;;;;;5079077;28;20209;-74
2022/02/03 02:56:58;;;;;;;18.05;12.88;;;;;;;;;;5071933;28;20276;-74
2022/02/03 02:59:50;;;;;;;18.80;11.90;;;;;;;;;;5080486;28;20205;-74
2022/02/03 03:02:48;;;;;;;19.00;11.80;;;;;;;;;;5082887;28;20683;-74
2022/02/03 03:30:22;;;;;;;16.88;11.13;;;;;;;;;;5059899;28;20205;-74
2022/02/03 03:33:05;;;;;;;20.95;14.40;;;;;;;;;;5063856;28;20191;-74
2022/02/03 03:35:39;;;;;;;19.05;13.73;;;;;;;;;;5062821;28;20281;-73
2022/02/03 03:38:08;;;;;;;18.98;13.38;;;;;;;;;;5056589;28;20193;-74
2022/02/03 03:40:36;;;;;;;20.05;13.13;;;;;;;;;;5063813;28;20203;-73
2022/02/03 03:43:05;;;;;;;21.15;14.60;;;;;;;;;;5070787;28;20714;-73
2022/02/03 03:45:32;;;;;;;17.83;13.75;;;;;;;;;;5060710;28;21715;-73
2022/02/03 03:48:02;;;;;;;21.80;14.32;;;;;;;;;;5069691;28;20194;-74
2022/02/03 03:50:30;;;;;;;19.42;14.52;;;;;;;;;;5062965;28;20213;-73
2022/02/03 03:53:04;;;;;;;18.63;12.85;;;;;;;;;;5063091;28;20202;-74
2022/02/03 03:55:39;;;;;;;22.13;14.82;;;;;;;;;;5051060;28;20194;-75
2022/02/03 04:32:56;;;;;;;19.80;13.73;;;;;;;;;;5045096;28;20201;-75
2022/02/03 04:38:34;;;;;;;16.70;13.88;;;;;;;;;;5043163;28;20557;-74
2022/02/03 04:55:50;;;;;;;21.70;14.27;;;;;;;;;;5048127;28;20195;-73
2022/02/03 05:01:38;;;;;;;20.42;12.75;;;;;;;;;;5026609;28;20221;-74
2022/02/03 05:04:23;;;;;;;19.58;14.55;;;;;;;;;;5062141;28;20197;-74
2022/02/03 05:07:10;;;;;;;19.15;14.27;;;;;;;;;;5056668;28;20557;-73
2022/02/03 05:09:57;;;;;;;17.67;12.13;;;;;;;;;;5053119;28;20708;-74
2022/02/03 05:12:40;;;;;;;20.38;14.52;;;;;;;;;;5050045;28;20199;-74
2022/02/03 05:15:28;;;;;;;17.55;13.00;;;;;;;;;;5045739;28;20666;-74
2022/02/03 05:21:13;;;;;;;17.70;13.25;;;;;;;;;;5046061;28;20210;-73
2022/02/03 05:27:08;;;;;;;19.40;15.43;;;;;;;;;;5026669;28;20289;-74
2022/02/03 05:33:12;;;;;;;22.17;14.13;;;;;;;;;;5047481;28;20672;-74
2022/02/03 05:44:41;;;;;;;23.02;15.80;;;;;;;;;;5049722;28;20313;-74
2022/02/03 05:47:22;;;;;;;24.80;16.95;;;;;;;;;;5046583;28;20195;-74
2022/02/03 06:07:06;;;;;;;19.10;13.73;;;;;;;;;;5036488;28;20206;-74
2022/02/03 06:11:51;;;;;;;17.52;13.93;;;;;;;;;;5046905;28;20198;-74
2022/02/03 06:15:21;;;;;;;17.75;12.20;;;;;;;;;;5046034;28;20208;-74
2022/02/03 06:20:41;;;;;;;19.33;13.93;;;;;;;;;;5049468;28;21920;-74
2022/02/03 06:21:18;;;;;;;17.75;13.13;;;;;;;;;;5050778;28;20613;-75
2022/02/03 06:23:49;;;;;;;15.75;12.00;;;;;;;;;;5047809;28;20492;-74
2022/02/03 06:29:01;;;;;;;14.25;10.77;;;;;;;;;;5051124;28;20213;-74
2022/02/03 06:31:29;;;;;;;18.55;12.70;;;;;;;;;;5046214;28;20189;-74
2022/02/03 06:33:56;;;;;;;16.92;11.55;;;;;;;;;;5049130;28;20211;-74
2022/02/03 06:36:24;;;;;;;15.07;11.23;;;;;;;;;;5047982;28;20190;-74
2022/02/03 06:38:51;;;;;;;13.20;11.13;;;;;;;;;;5054280;28;20195;-74
2022/02/03 06:41:18;;;;;;;16.60;11.90;;;;;;;;;;5049683;28;20534;-74
2022/02/03 06:43:45;;;;;;;13.50;10.13;;;;;;;;;;5055010;28;20232;-74
2022/02/03 06:46:13;;;;;;;11.45;10.25;;;;;;;;;;5050204;28;20198;-74
2022/02/03 06:48:44;;;;;;;12.60;10.60;;;;;;;;;;5048228;28;20193;-73
2022/02/03 06:51:17;;;;;;;13.18;11.57;;;;;;;;;;5040396;28;20230;-74
2022/02/03 06:53:51;;;;;;;18.38;12.80;;;;;;;;;;5069186;28;20198;-73
2022/02/03 06:56:28;;;;;;;13.90;11.98;;;;;;;;;;5053259;28;20190;-74
2022/02/03 06:58:59;;;;;;;15.32;12.88;;;;;;;;;;5048544;28;20186;-73
2022/02/03 07:01:30;;;;;;;12.00;10.65;;;;;;;;;;5066041;28;20217;-73
2022/02/03 07:04:00;;;;;;;14.80;10.65;;;;;;;;;;5052142;28;20218;-74
2022/02/03 07:06:28;;;;;;;14.32;11.82;;;;;;;;;;5047369;28;20249;-73
2022/02/03 07:08:59;;;;;;;16.30;12.18;;;;;;;;;;5049308;28;20814;-73
2022/02/03 07:11:26;;;;;;;14.75;11.30;;;;;;;;;;5046764;28;20278;-73
2022/02/03 07:13:53;;;;;;;11.70;10.38;;;;;;;;;;5050088;28;20613;-73
2022/02/03 07:16:20;;;;;;;14.60;9.80;;;;;;;;;;5046572;28;20199;-73
2022/02/03 07:18:47;;;;;;;14.45;11.43;;;;;;;;;;5047066;28;20187;-73
2022/02/03 07:21:14;;;;;;;12.55;11.25;;;;;;;;;;5045191;28;20195;-73
2022/02/03 07:23:41;;;;;;;14.10;11.40;;;;;;;;;;5047551;28;20227;-74
2022/02/03 07:26:09;;;;;;;17.95;11.57;;;;;;;;;;5048402;28;20232;-74
2022/02/03 07:28:37;;;;;;;15.32;10.15;;;;;;;;;;5058853;28;20201;-73
2022/02/03 07:31:05;;;;;;;14.02;12.20;;;;;;;;;;5054068;28;20561;-77
2022/02/03 07:33:32;;;;;;;12.02;9.40;;;;;;;;;;5050313;28;20198;-76
2022/02/03 07:35:59;;;;;;;12.90;11.60;;;;;;;;;;5050870;28;20199;-76
2022/02/03 07:38:27;;;;;;;12.52;11.02;;;;;;;;;;5049707;28;20198;-76
2022/02/03 07:40:54;;;;;;;10.30;9.20;;;;;;;;;;5049924;28;20190;-77
2022/02/03 07:43:22;;;;;;;12.23;10.93;;;;;;;;;;5055542;28;20254;-71
2022/02/03 07:45:50;;;;;;;10.55;9.45;;;;;;;;;;5050207;28;20191;-73
2022/02/03 07:48:20;;;;;;;10.15;9.05;;;;;;;;;;5056024;28;20217;-73
2022/02/03 07:50:47;;;;;;;12.80;9.32;;;;;;;;;;5053108;28;20194;-73
2022/02/03 07:53:14;;;;;;;9.90;8.05;;;;;;;;;;5054422;28;20187;-73
2022/02/03 07:55:41;;;;;;;10.77;8.90;;;;;;;;;;5050401;28;20202;-73
2022/02/03 07:58:08;;;;;;;10.32;9.02;;;;;;;;;;5054091;28;20190;-73
2022/02/03 08:00:37;;;;;;;11.13;8.60;;;;;;;;;;5050796;28;20194;-74
2022/02/03 08:03:09;;;;;;;12.02;9.52;;;;;;;;;;5051014;28;20207;-73
2022/02/03 08:05:37;;;;;;;11.43;8.73;;;;;;;;;;5052079;28;20770;-73
2022/02/03 08:08:10;;;;;;;11.18;8.38;;;;;;;;;;5055427;28;20207;-73
2022/02/03 08:10:41;;;;;;;13.18;8.70;;;;;;;;;;5053580;28;20198;-73
2022/02/03 08:13:13;;;;;;;9.90;8.68;;;;;;;;;;5054754;28;20206;-73
2022/02/03 08:15:42;;;;;;;10.43;8.40;;;;;;;;;;5050919;28;20567;-73
2022/02/03 08:18:14;;;;;;;9.13;7.60;;;;;;;;;;5054841;28;20194;-73
2022/02/03 08:20:49;;;;;;;9.23;8.23;;;;;;;;;;5046645;28;20199;-73
2022/02/03 08:23:40;;;;;;;11.05;8.98;;;;;;;;;;5045681;28;20791;-73
2022/02/03 08:26:14;;;;;;;11.70;9.23;;;;;;;;;;5047278;28;20232;-73
2022/02/03 08:29:09;;;;;;;11.13;8.30;;;;;;;;;;5049092;28;20221;-73
2022/02/03 08:31:42;;;;;;;8.75;7.43;;;;;;;;;;5046992;28;20195;-73
2022/02/03 08:34:15;;;;;;;10.90;8.15;;;;;;;;;;5047436;28;20301;-73
2022/02/03 08:36:42;;;;;;;12.43;8.50;;;;;;;;;;5045983;28;20282;-72
2022/02/03 08:39:11;;;;;;;10.65;8.80;;;;;;;;;;5038156;28;20183;-72
2022/02/03 08:41:38;;;;;;;9.25;7.60;;;;;;;;;;5044293;28;20225;-72
2022/02/03 08:44:06;;;;;;;11.35;6.68;;;;;;;;;;5044731;28;20222;-72
2022/02/03 08:46:33;;;;;;;14.70;9.52;;;;;;;;;;5043915;28;20572;-73
2022/02/03 08:49:05;;;;;;;11.07;8.57;;;;;;;;;;5045956;28;20207;-74
2022/02/03 08:51:32;;;;;;;8.48;7.68;;;;;;;;;;5044881;28;20199;-74
2022/02/03 08:54:07;;;;;;;10.02;7.22;;;;;;;;;;5053859;28;20210;-74
2022/02/03 08:56:42;;;;;;;10.85;7.45;;;;;;;;;;5062656;28;20280;-74
2022/02/03 09:38:31;;;;;;;6.93;6.22;;;;;;;;;;5053465;28;20576;-74
2022/02/03 09:41:33;;;;;;;7.25;6.47;;;;;;;;;;5069728;28;20244;-73
2022/02/03 09:52:44;;;;;;;6.35;5.75;;;;;;;;;;5051527;28;20252;-74
2022/02/03 09:58:10;;;;;;;9.10;7.15;;;;;;;;;;5047683;28;20202;-74
2022/02/03 10:00:44;;;;;;;7.55;6.50;;;;;;;;;;5051544;28;20186;-74
2022/02/03 10:03:17;;;;;;;8.75;6.65;;;;;;;;;;5050869;28;20218;-73
2022/02/03 10:05:56;;;;;;;7.57;6.80;;;;;;;;;;5044108;28;20285;-74
2022/02/03 10:08:26;;;;;;;7.72;6.28;;;;;;;;;;5046857;28;20286;-74
2022/02/03 10:11:10;;;;;;;9.13;7.25;;;;;;;;;;5048726;28;20190;-73
2022/02/03 10:13:42;;;;;;;8.25;6.03;;;;;;;;;;5049368;28;20199;-74
2022/02/03 10:16:09;;;;;;;7.38;6.38;;;;;;;;;;5046473;28;20470;-74
2022/02/03 10:18:36;;;;;;;7.80;6.97;;;;;;;;;;5052410;28;20252;-74
2022/02/03 10:21:06;;;;;;;7.35;6.45;;;;;;;;;;5051174;28;20207;-74
2022/02/03 10:23:34;;;;;;;8.02;6.78;;;;;;;;;;5050875;28;20283;-73
2022/02/03 10:26:08;;;;;;;7.22;6.18;;;;;;;;;;5044882;28;20218;-73
2022/02/03 10:28:36;;;;;;;8.00;6.43;;;;;;;;;;5053247;28;20194;-74
2022/02/03 10:31:04;;;;;;;7.93;6.07;;;;;;;;;;5048488;28;20199;-74
2022/02/03 10:33:33;;;;;;;8.00;7.30;;;;;;;;;;5045393;28;20669;-74
2022/02/03 10:36:06;;;;;;;8.88;7.32;;;;;;;;;;5045623;28;20249;-76
2022/02/03 10:38:55;;;;;;;9.50;6.82;;;;;;;;;;5049520;28;20203;-74
2022/02/03 10:41:59;;;;;;;12.75;6.30;;;;;;;;;;5047976;28;20198;-73
2022/02/03 10:45:00;;;;;;;8.00;5.80;;;;;;;;;;5045725;28;20310;-74
2022/02/03 10:48:04;;;;;;;7.63;6.03;;;;;;;;;;5042646;28;21287;-73
2022/02/03 10:50:45;;;;;;;7.05;6.10;;;;;;;;;;5040836;28;20649;-73
2022/02/03 10:53:35;;;;;;;9.02;7.03;;;;;;;;;;5045866;28;20653;-73
2022/02/03 11:02:24;;;;;;;7.78;6.95;;;;;;;;;;5049517;28;20249;-73
2022/02/03 11:05:13;;;;;;;7.18;6.45;;;;;;;;;;5043866;28;20230;-73
2022/02/03 11:07:47;;;;;;;6.38;5.75;;;;;;;;;;5046711;28;20200;-73
2022/02/03 11:10:26;;;;;;;8.32;7.40;;;;;;;;;;5037391;28;20252;-73
2022/02/03 11:12:54;;;;;;;6.40;5.35;;;;;;;;;;5060336;28;20256;-72
2022/02/03 11:15:23;;;;;;;6.95;6.28;;;;;;;;;;5053377;28;20194;-72
2022/02/03 11:17:51;;;;;;;7.25;5.95;;;;;;;;;;5055021;28;20223;-73
2022/02/03 11:20:19;;;;;;;7.45;6.50;;;;;;;;;;5047359;28;20217;-72
2022/02/03 11:22:53;;;;;;;9.45;6.28;;;;;;;;;;5043323;28;20728;-72
2022/02/03 11:25:33;;;;;;;7.78;6.50;;;;;;;;;;5063923;28;20229;-72
2022/02/03 11:28:22;;;;;;;8.95;6.93;;;;;;;;;;5047482;28;20202;-73
2022/02/03 11:34:13;;;;;;;10.25;6.50;;;;;;;;;;5051934;28;20198;-72
2022/02/03 11:37:09;;;;;;;5.93;5.07;;;;;;;;;;5040427;28;20281;-73
2022/02/03 11:48:37;;;;;;;7.40;6.43;;;;;;;;;;5120491;27;20751;-74
2022/02/03 11:54:18;;;;;;;7.20;6.25;;;;;;;;;;5117867;27;20192;-74
2022/02/03 11:57:12;;;;;;;7.07;6.47;;;;;;;;;;5123768;27;20231;-72
2022/02/03 12:05:46;;;;;;;7.82;6.60;;;;;;;;;;5101612;27;20196;-72
2022/02/03 12:12:02;;;;;;;7.70;6.88;;;;;;;;;;5117356;27;20192;-73
2022/02/03 12:17:48;;;;;;;8.82;6.53;;;;;;;;;;5057653;28;20213;-72
2022/02/03 12:20:25;;;;;;;8.85;6.25;;;;;;;;;;5115449;27;20192;-72
2022/02/03 12:23:02;;;;;;;6.68;5.78;;;;;;;;;;5118759;28;20188;-73
2022/02/03 12:25:50;;;;;;;9.40;6.35;;;;;;;;;;5103358;27;20303;-72
2022/02/03 12:28:30;;;;;;;7.82;7.13;;;;;;;;;;5100701;28;20216;-72
2022/02/03 12:39:20;;;;;;;7.18;6.47;;;;;;;;;;5101755;28;20284;-72
2022/02/03 12:42:04;;;;;;;7.03;6.40;;;;;;;;;;5101235;28;20199;-72
2022/02/03 12:44:35;;;;;;;13.20;6.80;;;;;;;;;;5101533;28;20291;-71
2022/02/03 12:47:05;;;;;;;9.48;6.93;;;;;;;;;;5097287;28;20225;-71
2022/02/03 12:49:33;;;;;;;7.28;5.88;;;;;;;;;;5104359;28;20515;-71
2022/02/03 12:52:00;;;;;;;6.60;5.93;;;;;;;;;;5094518;28;20197;-72
2022/02/03 12:54:33;;;;;;;6.55;5.55;;;;;;;;;;5107347;28;20655;-72
2022/02/03 12:57:02;;;;;;;5.70;5.20;;;;;;;;;;5105416;28;20193;-72
2022/02/03 12:59:32;;;;;;;8.75;6.30;;;;;;;;;;5090724;28;20284;-72
2022/02/03 13:01:59;;;;;;;6.97;6.28;;;;;;;;;;5091763;28;20284;-71
2022/02/03 13:04:26;;;;;;;7.03;6.20;;;;;;;;;;5092971;28;20205;-71
2022/02/03 13:07:05;;;;;;;8.15;7.35;;;;;;;;;;5079573;28;20221;-72
2022/02/03 13:09:39;;;;;;;6.70;5.90;;;;;;;;;;5078325;28;20284;-72
2022/02/03 13:12:18;;;;;;;9.23;5.82;;;;;;;;;;5091832;28;20189;-72
2022/02/03 13:14:51;;;;;;;10.57;6.88;;;;;;;;;;5087891;28;20617;-71
2022/02/03 13:17:22;;;;;;;7.40;6.70;;;;;;;;;;5090209;28;20545;-70
2022/02/03 13:19:56;;;;;;;9.93;5.90;;;;;;;;;;5088904;28;20189;-73
2022/02/03 13:22:32;;;;;;;9.48;5.35;;;;;;;;;;5087833;28;20189;-72
2022/02/03 13:25:12;;;;;;;6.18;5.32;;;;;;;;;;5089818;28;20270;-73
2022/02/03 13:27:44;;;;;;;7.40;5.60;;;;;;;;;;5092835;28;20313;-73
2022/02/03 13:30:29;;;;;;;7.78;5.38;;;;;;;;;;5089388;28;20905;-72
2022/02/03 13:33:00;;;;;;;6.97;5.75;;;;;;;;;;5091940;28;20225;-73
2022/02/03 13:35:31;;;;;;;6.22;4.85;;;;;;;;;;5091393;28;20292;-71
2022/02/03 13:38:03;;;;;;;6.43;4.78;;;;;;;;;;5087396;28;20193;-71
2022/02/03 13:40:30;;;;;;;6.63;5.78;;;;;;;;;;5091204;28;20221;-73
2022/02/03 13:43:02;;;;;;;6.18;5.20;;;;;;;;;;5088902;28;20547;-71
2022/02/03 13:45:29;;;;;;;6.57;5.43;;;;;;;;;;5082671;28;20238;-73
2022/02/03 13:47:56;;;;;;;6.45;5.43;;;;;;;;;;5090660;28;20217;-73
2022/02/03 13:50:26;;;;;;;7.30;5.22;;;;;;;;;;5090428;28;20564;-73
2022/02/03 13:52:58;;;;;;;5.47;4.85;;;;;;;;;;5086808;28;20198;-73
2022/02/03 14:20:41;;;;;;;4.78;3.85;;;;;;;;;;5059476;28;20194;-73
2022/02/03 14:28:53;;;;;;;6.70;4.45;;;;;;;;;;5064474;28;20287;-73
2022/02/03 14:31:21;;;;;;;5.55;5.00;;;;;;;;;;5063722;28;20193;-73
2022/02/03 14:33:48;;;;;;;4.65;3.95;;;;;;;;;;5089002;28;20207;-73
2022/02/03 14:36:18;;;;;;;4.82;4.35;;;;;;;;;;5082704;28;20203;-74
2022/02/03 14:38:59;;;;;;;6.10;3.65;;;;;;;;;;5073796;28;20204;-75
2022/02/03 14:41:34;;;;;;;5.03;4.22;;;;;;;;;;5086547;28;20667;-74
2022/02/03 14:44:02;;;;;;;4.90;4.00;;;;;;;;;;5079815;28;20194;-75
2022/02/03 14:46:31;;;;;;;6.25;5.38;;;;;;;;;;5081824;28;20685;-75
2022/02/03 14:48:59;;;;;;;5.60;4.00;;;;;;;;;;5084148;28;20194;-74
2022/02/03 14:51:30;;;;;;;4.28;3.88;;;;;;;;;;5084628;28;20190;-74
2022/02/03 14:57:59;;;;;;;5.10;3.92;;;;;;;;;;5087653;28;20203;-74
2022/02/03 14:59:29;;;;;;;5.53;4.47;;;;;;;;;;5096878;28;20516;-74
2022/02/03 15:01:58;;;;;;;5.97;4.10;;;;;;;;;;5082535;28;20206;-75
2022/02/03 15:04:28;;;;;;;4.95;3.50;;;;;;;;;;5082573;28;20242;-74
2022/02/03 15:07:00;;;;;;;6.03;4.60;;;;;;;;;;5084527;28;20296;-74
2022/02/03 15:12:25;;;;;;;4.72;3.55;;;;;;;;;;5072322;28;20200;-75
2022/02/03 15:14:52;;;;;;;4.75;4.20;;;;;;;;;;5079489;28;20276;-75
2022/02/03 15:17:22;;;;;;;4.30;3.90;;;;;;;;;;5087017;28;20205;-75
2022/02/03 15:19:49;;;;;;;5.40;4.88;;;;;;;;;;5087030;28;20579;-75
2022/02/03 15:22:16;;;;;;;7.82;4.50;;;;;;;;;;5078011;28;20224;-74
2022/02/03 15:24:43;;;;;;;5.93;4.25;;;;;;;;;;5081952;28;20213;-74
2022/02/03 15:27:12;;;;;;;4.38;3.10;;;;;;;;;;5086788;28;20229;-74
2022/02/03 15:29:39;;;;;;;4.72;3.58;;;;;;;;;;5075632;28;20920;-74
2022/02/03 15:32:07;;;;;;;4.55;4.10;;;;;;;;;;5086147;28;20193;-74
2022/02/03 15:34:35;;;;;;;4.13;3.58;;;;;;;;;;5090411;28;20208;-74
2022/02/03 15:37:05;;;;;;;4.70;4.13;;;;;;;;;;5080881;28;20577;-74
2022/02/03 15:39:39;;;;;;;3.50;3.20;;;;;;;;;;5087308;28;20193;-75
2022/02/03 15:42:07;;;;;;;3.08;2.88;;;;;;;;;;5087196;28;20246;-74
2022/02/03 15:44:39;;;;;;;4.63;3.78;;;;;;;;;;5086824;28;20190;-74
2022/02/03 15:47:16;;;;;;;3.53;3.22;;;;;;;;;;5081383;28;20312;-75
2022/02/03 15:50:14;;;;;;;4.85;3.17;;;;;;;;;;5085693;28;20205;-74
2022/02/03 16:01:25;;;;;;;3.60;3.30;;;;;;;;;;5082404;28;20250;-74
2022/02/03 16:04:05;;;;;;;3.65;3.35;;;;;;;;;;5086815;28;20197;-74
2022/02/03 16:16:03;;;;;;;3.97;3.35;;;;;;;;;;5081494;28;20246;-74
2022/02/03 16:18:02;;;;;;;4.93;3.75;;;;;;;;;;5084443;28;20286;-74
2022/02/03 16:20:35;;;;;;;3.38;3.13;;;;;;;;;;5084164;28;20198;-74
2022/02/03 16:23:16;;;;;;;2.88;2.58;;;;;;;;;;5084621;28;20229;-74
2022/02/03 16:26:35;;;;;;;4.85;3.63;;;;;;;;;;5086939;28;20599;-74
2022/02/03 16:51:00;;;;;;;5.50;4.15;;;;;;;;;;5088713;28;20247;-74
2022/02/03 16:53:28;;;;;;;3.42;3.15;;;;;;;;;;5090701;28;20247;-74
2022/02/03 16:55:58;;;;;;;5.75;3.35;;;;;;;;;;5088797;28;20198;-74
2022/02/03 16:58:28;;;;;;;9.77;4.03;;;;;;;;;;5087869;28;20201;-75
2022/02/03 17:00:59;;;;;;;5.13;3.67;;;;;;;;;;5088288;28;20258;-74
2022/02/03 17:03:26;;;;;;;6.80;3.42;;;;;;;;;;5090600;28;20599;-75
2022/02/03 17:05:53;;;;;;;5.78;4.40;;;;;;;;;;5088092;28;20197;-75
2022/02/03 17:08:21;;;;;;;6.50;3.65;;;;;;;;;;5089778;28;20237;-77
2022/02/03 17:10:48;;;;;;;4.30;3.90;;;;;;;;;;5089687;28;20656;-75
2022/02/03 17:13:16;;;;;;;4.57;3.60;;;;;;;;;;5090432;28;20254;-75
2022/02/03 17:15:43;;;;;;;4.35;3.95;;;;;;;;;;5087337;28;20622;-74
2022/02/03 17:18:12;;;;;;;6.35;4.00;;;;;;;;;;5090981;28;20202;-73
2022/02/03 17:20:40;;;;;;;4.13;3.72;;;;;;;;;;5086589;28;20263;-74
2022/02/03 17:23:11;;;;;;;4.47;3.92;;;;;;;;;;5085028;28;20193;-75
2022/02/03 17:25:46;;;;;;;5.57;3.70;;;;;;;;;;5088036;28;20254;-74
2022/02/03 17:28:18;;;;;;;4.13;3.10;;;;;;;;;;5090561;28;20548;-74
2022/02/03 17:30:52;;;;;;;4.47;4.07;;;;;;;;;;5085170;28;20252;-74
2022/02/03 18:04:56;;;;;;;5.80;4.50;;;;;;;;;;5089559;28;20293;-74
2022/02/03 18:10:00;;;;;;;4.53;3.10;;;;;;;;;;5085979;28;20200;-74
2022/02/03 18:34:51;;;;;;;5.38;4.65;;;;;;;;;;5091141;28;20242;-74
2022/02/03 18:37:35;;;;;;;6.43;4.85;;;;;;;;;;5089246;28;20574;-74
2022/02/03 18:46:24;;;;;;;6.03;4.72;;;;;;;;;;5088364;28;20197;-74
2022/02/03 18:49:45;;;;;;;6.93;4.68;;;;;;;;;;5091180;28;20256;-73
2022/02/03 18:52:00;;;;;;;10.98;5.60;;;;;;;;;;5086345;28;20297;-74
2022/02/03 18:54:33;;;;;;;5.88;5.28;;;;;;;;;;5101104;28;20196;-74
2022/02/03 18:57:14;;;;;;;5.70;5.20;;;;;;;;;;5076932;28;20552;-74
2022/02/03 19:00:20;;;;;;;7.88;5.85;;;;;;;;;;5086817;28;20197;-74
2022/02/03 19:27:57;;;;;;;8.48;6.05;;;;;;;;;;5089578;28;20266;-74
2022/02/03 20:03:55;;;;;;;9.48;6.57;;;;;;;;;;5090180;28;20579;-74
2022/02/03 20:06:34;;;;;;;10.45;6.63;;;;;;;;;;5083473;28;20193;-73
2022/02/03 20:09:10;;;;;;;7.32;6.63;;;;;;;;;;5092735;28;20637;-74
2022/02/03 20:11:38;;;;;;;9.43;5.53;;;;;;;;;;5093132;28;20200;-73
2022/02/03 20:14:11;;;;;;;6.68;5.97;;;;;;;;;;5092158;28;20198;-74
2022/02/03 20:16:40;;;;;;;7.75;6.95;;;;;;;;;;5086544;28;20186;-74
2022/02/03 20:19:07;;;;;;;8.63;7.80;;;;;;;;;;5093932;28;20197;-74
2022/02/03 20:21:35;;;;;;;7.55;6.70;;;;;;;;;;5091467;28;20201;-74
2022/02/03 20:24:04;;;;;;;7.43;6.68;;;;;;;;;;5094465;28;20201;-74
2022/02/03 20:26:32;;;;;;;7.63;6.13;;;;;;;;;;5093777;28;20217;-73
2022/02/03 20:28:59;;;;;;;10.93;7.78;;;;;;;;;;5085097;28;20501;-74
2022/02/03 20:31:26;;;;;;;7.95;6.40;;;;;;;;;;5086018;28;20190;-74
2022/02/03 20:33:54;;;;;;;8.93;6.75;;;;;;;;;;5085894;28;20200;-74
2022/02/03 20:36:22;;;;;;;9.75;7.53;;;;;;;;;;5085419;28;20201;-74
2022/02/03 20:38:51;;;;;;;8.00;7.30;;;;;;;;;;5084835;28;20678;-74
2022/02/03 20:41:18;;;;;;;7.40;6.60;;;;;;;;;;5092616;28;20181;-74
2022/02/03 20:43:45;;;;;;;11.32;7.18;;;;;;;;;;5081441;28;20202;-74
2022/02/03 20:46:12;;;;;;;9.50;7.63;;;;;;;;;;5085376;28;20284;-74
2022/02/03 20:48:45;;;;;;;9.68;7.15;;;;;;;;;;5089330;28;20293;-74
2022/02/03 20:51:14;;;;;;;10.18;7.93;;;;;;;;;;5081123;28;20591;-74
2022/02/03 20:53:41;;;;;;;8.60;7.70;;;;;;;;;;5093620;28;20209;-74
2022/02/03 20:56:09;;;;;;;10.77;8.15;;;;;;;;;;5080740;28;20202;-73
2022/02/03 20:58:37;;;;;;;8.30;7.40;;;;;;;;;;5094865;28;20259;-74
2022/02/03 21:01:11;;;;;;;10.05;7.70;;;;;;;;;;5089184;28;20607;-74
2022/02/03 21:03:41;;;;;;;13.35;7.80;;;;;;;;;;5092538;28;20201;-74
2022/02/03 21:06:09;;;;;;;7.57;6.88;;;;;;;;;;5083759;28;20251;-74
2022/02/03 21:08:40;;;;;;;8.70;7.53;;;;;;;;;;5092362;28;20286;-73
2022/02/03 21:11:07;;;;;;;10.15;7.53;;;;;;;;;;5092213;28;20197;-74
2022/02/03 21:13:34;;;;;;;9.90;7.15;;;;;;;;;;5091008;28;20198;-74
2022/02/03 21:16:03;;;;;;;10.68;9.15;;;;;;;;;;5090589;28;20197;-74
2022/02/03 21:18:33;;;;;;;10.55;8.55;;;;;;;;;;5091261;28;20194;-74
2022/02/03 21:21:00;;;;;;;9.32;7.80;;;;;;;;;;5089697;28;20202;-73
2022/02/03 21:23:27;;;;;;;10.02;8.50;;;;;;;;;;5092304;28;20190;-74
2022/02/03 21:25:58;;;;;;;7.70;6.82;;;;;;;;;;5088263;28;20220;-74
2022/02/03 21:28:28;;;;;;;9.75;8.15;;;;;;;;;;5093555;28;20210;-74
2022/02/03 21:30:56;;;;;;;10.30;8.82;;;;;;;;;;5082989;28;20216;-74
2022/02/03 21:33:26;;;;;;;9.75;8.43;;;;;;;;;;5084515;28;20568;-74
2022/02/03 21:35:56;;;;;;;12.05;7.07;;;;;;;;;;5080860;28;20194;-74
2022/02/03 21:38:23;;;;;;;7.72;6.15;;;;;;;;;;5093296;28;20201;-74
2022/02/03 21:40:51;;;;;;;9.85;7.60;;;;;;;;;;5083748;28;20676;-74
2022/02/03 21:43:19;;;;;;;8.82;7.82;;;;;;;;;;5084899;28;20197;-74
2022/02/03 21:45:46;;;;;;;9.25;8.27;;;;;;;;;;5084980;28;20197;-74
2022/02/03 21:48:14;;;;;;;9.25;8.00;;;;;;;;;;5093022;28;20221;-74
2022/02/03 21:50:42;;;;;;;12.00;9.00;;;;;;;;;;5088358;28;20723;-74
2022/02/03 21:53:16;;;;;;;13.07;8.82;;;;;;;;;;5078229;28;20198;-72
2022/02/03 21:55:44;;;;;;;11.18;7.95;;;;;;;;;;5088804;28;20216;-72
2022/02/03 21:58:11;;;;;;;9.93;7.65;;;;;;;;;;5086671;28;20194;-74
2022/02/03 22:00:40;;;;;;;10.52;8.63;;;;;;;;;;5086357;28;20193;-74
2022/02/03 22:03:07;;;;;;;11.88;8.13;;;;;;;;;;5090948;28;20204;-74
2022/02/03 22:05:36;;;;;;;8.63;7.82;;;;;;;;;;5089390;28;20186;-74
2022/02/03 22:08:03;;;;;;;8.23;7.03;;;;;;;;;;5076791;28;20192;-74
2022/02/03 22:10:30;;;;;;;12.38;10.23;;;;;;;;;;5091669;28;20198;-74
2022/02/03 22:12:57;;;;;;;10.90;9.18;;;;;;;;;;5090725;28;20206;-74
2022/02/03 22:15:27;;;;;;;15.93;10.70;;;;;;;;;;5087234;28;20186;-73
2022/02/03 22:17:55;;;;;;;14.27;9.45;;;;;;;;;;5088199;28;20228;-74
2022/02/03 22:20:28;;;;;;;15.40;11.05;;;;;;;;;;5090237;28;20595;-74
2022/02/03 22:23:12;;;;;;;12.63;10.75;;;;;;;;;;5091520;28;20676;-74
2022/02/03 22:28:38;;;;;;;12.73;10.20;;;;;;;;;;5046413;28;20208;-74
2022/02/03 22:42:29;;;;;;;11.90;9.80;;;;;;;;;;5078094;28;20193;-74
2022/02/03 22:44:59;;;;;;;10.95;9.73;;;;;;;;;;5090040;28;20205;-74
2022/02/03 22:47:37;;;;;;;13.27;9.70;;;;;;;;;;5091303;28;20680;-74
2022/02/03 22:50:07;;;;;;;10.70;9.10;;;;;;;;;;5090760;28;20217;-74
2022/02/03 22:52:34;;;;;;;15.50;10.45;;;;;;;;;;5085975;28;20299;-74
2022/02/03 22:55:01;;;;;;;11.95;9.57;;;;;;;;;;5090996;28;20194;-74
2022/02/03 22:57:29;;;;;;;15.00;11.23;;;;;;;;;;5090060;28;20614;-74
2022/02/03 23:00:12;;;;;;;9.80;8.80;;;;;;;;;;5084629;28;20190;-73
2022/02/03 23:02:39;;;;;;;10.07;8.98;;;;;;;;;;5086423;28;20189;-74
2022/02/03 23:05:09;;;;;;;12.70;10.73;;;;;;;;;;5090648;28;20193;-73
2022/02/03 23:07:49;;;;;;;13.57;10.18;;;;;;;;;;5089298;28;20206;-74
2022/02/03 23:10:20;;;;;;;14.82;11.35;;;;;;;;;;5085589;28;20245;-74
2022/02/03 23:13:08;;;;;;;14.35;10.27;;;;;;;;;;5089635;28;20185;-74
2022/02/03 23:15:59;;;;;;;13.10;9.52;;;;;;;;;;5087697;28;20588;-74
2022/02/03 23:18:31;;;;;;;12.52;11.05;;;;;;;;;;5089380;28;20667;-74
2022/02/03 23:21:27;;;;;;;11.85;9.90;;;;;;;;;;5084874;28;20205;-74
2022/02/03 23:23:55;;;;;;;14.93;11.05;;;;;;;;;;5086036;28;20648;-74